Agios Nikolas — SVAV5 — position and weather

sailwx.info

Track history (hours):
 
Tides and Currents Weather Stations Pressure Air Temp Water Temp Dewpoint Dewpoint Depression Visibility Wind Speed Wind Dir Waves Ship Positions

Agios Nikolas

Last reported at 2015-Aug-27 13:33 UTC. Time now 2015-Aug-31 19:49 UTC.
Position N 04°03' E 099°30'.

Length 225 m; draft 6.5 m.

Type: Cargo ship. MMSI: 240963000.

Date/timePositionNaut miles runAvg speedWind from/ knotsBaromVisibWave heightAir tempDewpointWater temp
2015-Aug-27 13:33N 04°03' E 099°30'1413.7
2015-Aug-27 12:33N 03°54' E 099°40'2814.2
2015-Aug-27 10:33N 03°37' E 100°03'2813.6
2015-Aug-27 08:30N 03°19' E 100°25'1312.8
2015-Aug-27 07:28N 03°12' E 100°36'2512.4
2015-Aug-27 05:28N 02°55' E 100°54'2512.9
2015-Aug-27 03:34N 02°42' E 101°15'1414.2
2015-Aug-27 02:33N 02°36' E 101°28'2713.6
2015-Aug-27 00:33N 02°19' E 101°49'2512.4
2015-Aug-26 22:33N 02°04' E 102°09'2512.4
2015-Aug-26 20:32N 01°50' E 102°30'7913.1
2015-Aug-26 14:33N 01°11' E 103°38'1110.7
2015-Aug-26 13:33N 01°11' E 103°49'1212.3
2015-Aug-26 12:33N 01°16' E 104°00'2 1.5
2015-Aug-26 11:21N 01°18' E 104°01'0 0.0
2015-Aug-26 10:21N 01°18' E 104°01'0 0.0
2015-Aug-26 07:18N 01°18' E 104°01'0 0.2
2015-Aug-26 06:33N 01°18' E 104°01'0 0.1
2015-Aug-26 05:33N 01°18' E 104°01'0 0.0
2015-Aug-26 04:30N 01°18' E 104°01'0 0.0
2015-Aug-26 03:30N 01°18' E 104°01'0 0.0
2015-Aug-26 02:33N 01°18' E 104°01'0 0.0
2015-Aug-26 01:33N 01°18' E 104°01'4 3.7
2015-Aug-26 00:34N 01°16' E 103°58'2 2.3
2015-Aug-25 23:33N 01°15' E 103°60'8 8.4
2015-Aug-25 22:33N 01°17' E 104°08'  
Track history (hours):
 
Tides and Currents Weather Stations Pressure Air Temp Water Temp Dewpoint Dewpoint Depression Visibility Wind Speed Wind Dir Waves Ship Positions

Agios Nikolas

Last reported at 2015-Aug-27 13:33 UTC. Time now 2015-Aug-31 19:49 UTC.
Position N 04°03' E 099°30'.

Length 225 m; draft 6.5 m.

Type: Cargo ship. MMSI: 240963000.

Date/timePositionNaut miles runAvg speedWind from/ knotsBaromVisibWave heightAir tempDewpointWater temp
2015-Aug-27 13:33N 04°03' E 099°30'1413.7
2015-Aug-27 12:33N 03°54' E 099°40'2814.2
2015-Aug-27 10:33N 03°37' E 100°03'2813.6
2015-Aug-27 08:30N 03°19' E 100°25'1312.8
2015-Aug-27 07:28N 03°12' E 100°36'2512.4
2015-Aug-27 05:28N 02°55' E 100°54'2512.9
2015-Aug-27 03:34N 02°42' E 101°15'1414.2
2015-Aug-27 02:33N 02°36' E 101°28'2713.6
2015-Aug-27 00:33N 02°19' E 101°49'2512.4
2015-Aug-26 22:33N 02°04' E 102°09'2512.4
2015-Aug-26 20:32N 01°50' E 102°30'7913.1
2015-Aug-26 14:33N 01°11' E 103°38'1110.7
2015-Aug-26 13:33N 01°11' E 103°49'1212.3
2015-Aug-26 12:33N 01°16' E 104°00'2 1.5
2015-Aug-26 11:21N 01°18' E 104°01'0 0.0
2015-Aug-26 10:21N 01°18' E 104°01'0 0.0
2015-Aug-26 07:18N 01°18' E 104°01'0 0.2
2015-Aug-26 06:33N 01°18' E 104°01'0 0.1
2015-Aug-26 05:33N 01°18' E 104°01'0 0.0
2015-Aug-26 04:30N 01°18' E 104°01'0 0.0
2015-Aug-26 03:30N 01°18' E 104°01'0 0.0
2015-Aug-26 02:33N 01°18' E 104°01'0 0.0
2015-Aug-26 01:33N 01°18' E 104°01'4 3.7
2015-Aug-26 00:34N 01°16' E 103°58'2 2.3
2015-Aug-25 23:33N 01°15' E 103°60'8 8.4
2015-Aug-25 22:33N 01°17' E 104°08'  

Dump ship's entire track history